Aplicació Alertes

Dades de l'estació automàtica Rellinars

?
?
Resum diari 22:30 TU
Dades diàries de l'estació meteorològica
Temperatura mitjana 4.9 °C
Temperatura màxima 10.6 °C 13:18 TU
Temperatura mínima 0.9 °C 7:30 TU
Humitat relativa mitjana 49%
Precipitació acumulada 0.0 mm
Ratxa màxima del vent (2 m) 11.5 km/h - 297º 14:13 TU
Irradiació solar global 8.7 MJ/m2

El tram horari està expressat en Temps Universal (TU). Cal sumar una hora en horari d'hivern i dues en horari d'estiu per passar a l'hora oficial.

Rellinars

Metadades estació meteorol´gica
Municipi Rellinars
Comarca Vallès Occidental
Altitud 421 m
Data alta 18.02.1998
Estat actual Operativa
Dades de període
Període
TU
TM
°C
TX
°C
TN
°C
HRM
%
PPT
mm
VVM (2 m)
km/h
DVM (2 m)
graus
VVX (2 m)
km/h
RS
W/m2
00:00 - 00:30 2.9 3.5 1.7 43 0.0 1.8 69 7.9 0
00:30 - 01:00 2.1 2.9 1.6 46 0.0 5.0 67 9.4 0
01:00 - 01:30 3.0 3.5 2.7 43 0.0 4.0 62 7.2 0
01:30 - 02:00 3.8 4.3 3.3 40 0.0 2.5 63 6.8 0
02:00 - 02:30 3.9 4.3 3.5 40 0.0 1.1 340 4.7 0
02:30 - 03:00 3.5 4.0 3.0 43 0.0 1.4 351 4.7 0
03:00 - 03:30 2.8 3.8 2.4 49 0.0 0.7 358 4.0 0
03:30 - 04:00 2.6 2.9 2.4 55 0.0 1.1 25 4.3 0
04:00 - 04:30 2.4 2.6 1.9 58 0.0 1.1 5 6.5 0
04:30 - 05:00 2.0 2.1 1.8 61 0.0 1.4 27 7.2 0
05:00 - 05:30 1.5 2.0 1.3 65 0.0 0.7 1 3.2 0
05:30 - 06:00 1.6 1.8 1.5 65 0.0 1.1 39 4.7 0
06:00 - 06:30 1.8 1.9 1.6 63 0.0 1.8 18 6.8 0
06:30 - 07:00 1.5 1.7 1.1 65 0.0 0.7 40 4.0 0
07:00 - 07:30 1.0 1.0 0.9 67 0.0 0.7 7 4.7 6
07:30 - 08:00 1.1 1.5 0.9 66 0.0 1.1 28 4.0 29
08:00 - 08:30 2.4 3.1 1.6 61 0.0 0.4 30 3.6 146
08:30 - 09:00 3.7 4.0 3.1 57 0.0 0.4 25 3.6 221
09:00 - 09:30 4.4 5.0 4.0 55 0.0 0.4 22 5.4 291
09:30 - 10:00 5.5 5.8 4.9 51 0.0 0.4 323 3.2 351
10:00 - 10:30 5.7 6.6 5.4 50 0.0 1.1 348 4.3 399
10:30 - 11:00 7.0 7.9 6.4 45 0.0 1.1 351 6.1 435
11:00 - 11:30 7.4 8.5 6.7 44 0.0 1.8 350 7.6 457
11:30 - 12:00 8.3 8.8 7.8 42 0.0 1.8 328 5.8 464
12:00 - 12:30 8.8 9.4 8.3 42 0.0 1.8 324 9.4 458
12:30 - 13:00 9.0 9.5 8.8 41 0.0 2.2 331 9.4 438
13:00 - 13:30 9.7 10.6 9.1 39 0.0 1.8 335 8.3 402
13:30 - 14:00 9.6 9.8 9.0 36 0.0 2.5 328 11.2 355
14:00 - 14:30 8.9 9.4 8.6 31 0.0 3.6 342 11.5 181
14:30 - 15:00 8.6 8.7 8.5 32 0.0 1.4 15 6.1 35
15:00 - 15:30 8.7 8.9 8.5 32 0.0 1.1 41 6.8 90
15:30 - 16:00 8.2 8.6 7.5 33 0.0 1.4 43 6.5 72
16:00 - 16:30 6.9 7.5 6.5 38 0.0 1.4 51 6.5 8
16:30 - 17:00 6.3 6.5 6.1 39 0.0 1.1 37 5.4 1
17:00 - 17:30 5.9 6.1 5.5 40 0.0 0.7 26 8.6 0
17:30 - 18:00 5.6 5.7 5.5 41 0.0 1.8 27 9.4 0
18:00 - 18:30 5.5 5.7 5.1 43 0.0 0.4 3 3.6 0
18:30 - 19:00 5.3 5.9 5.1 45 0.0 1.1 15 5.8 0
19:00 - 19:30 5.7 6.0 5.4 46 0.0 4.0 41 10.4 0
19:30 - 20:00 5.3 5.5 5.2 52 0.0 1.4 40 5.8 0
20:00 - 20:30 5.2 5.6 4.6 53 0.0 3.2 33 11.2 0
20:30 - 21:00 5.0 5.3 4.7 52 0.0 0.4 29 4.0 0
21:00 - 21:30 3.9 5.3 2.8 55 0.0 1.8 26 5.4 0
21:30 - 22:00 4.6 4.9 3.7 55 0.0 1.1 49 5.8 0
22:00 - 22:30 4.2 4.5 3.9 57 0.0 1.4 38 7.9 0
22:30 - 23:00 4.4 5.0 3.8 58 0.0 1.1 19 4.3 0

Les dades en taronja només han passat un control de qualitat automàtic. Resta pendent la seva validació definitiva.